Vanderbilt, MI (49795)

3:03 AM EDT on October 26, 2014 (GMT -0400)
Bows Lake | Change Station
CLOSE
Current Station
Personal Weather Station
Location: Vanderbilt, MI
Elevation: 1202 ft
Nearby Weather Stations

Elev 1202 ft 45.15 °N, 84.77 °W | Updated 28 seconds ago

Clear
Clear
47.3 °F
Feels Like 44 °F
N
6.3
Wind Variable Wind from SW
Gusts 7.8 mph

Today
High -- | Low -- °F
--% Chance of Precip.
Yesterday
High -- | Low -- °F
Precip. -- in
8:09 AM 6:35 PM
Waxing Crescent, 6% visible
Pressure 29.81 in
Visibility 10.0 miles
Clouds Clear
Windchill 44 °F
Dew Point 32 °F
Humidity 54%
Rainfall 0.00 in
Snow Depth Not available.
UV 0 out of 12
Pollen 1.60 out of 12
PM2.5 Good
Flu Activity Sporadic
METAR KGLR 260653Z AUTO 31010G19KT 270V350 10SM CLR 08/M01 A2979 RMK AO2 SLP092 T00831006

More Conditions Fewer Conditions

Pressure 29.81 in
Visibility 10.0 miles
Clouds Clear
Windchill 44 °F
Dew Point 32 °F
Humidity 54%
Rainfall 0.00 in
Snow Depth Not available.
UV 0 out of 12
Pollen 1.60 out of 12
PM2.5 Good
Flu Activity Sporadic
METAR KGLR 260653Z AUTO 31010G19KT 270V350 10SM CLR 08/M01 A2979 RMK AO2 SLP092 T00831006

More Conditions Fewer Conditions

Nowcast | as of 3:00 am EDT on October 26, 2014

At 4 am...clear. Temperature 44. Northwest winds 11 mph. At 6 am...clear. Temperature 41. Northwest winds 9 mph. At 8 am...mostly clear. Temperature 40. Northwest winds 9 mph. At 10 am...partly cloudy. Temperature 43. Northwest winds 13 mph.

×

10-Day Weather Forecast

Almanac

Astronomy

Oct. 26, 2014 Rise Set
Actual Time 8:09 AM EDT 6:35 PM EDT
Civil Twilight 7:38 AM EDT 7:05 PM EDT
Nautical Twilight 7:04 AM EDT 7:39 PM EDT
Astronomical Twilight 6:30 AM EDT 8:13 PM EDT
Moon 10:51 AM EDT 8:40 PM EDT
Length of Visible Light 11h 26m
Length of Day
10h 26m
Tomorrow will be 2m 54s shorter.
Waxing Crescent, 6% of the Moon is Illuminated
Today
Waxing Crescent
Oct 30
First Quarter
Nov 6
Full
Nov 14
Last Quarter
Nov 22
New

Today's Extremes

State Highs State Lows

Community

WunderPhotos

Upload Photos

1,765,115 photos uploaded!

Nearby

Air Quality

  Air Quality AQ Index Pollutant
Yesterday Good
OZONE
Yesterday Good
PM2.5
Current Good
PM2.5
Sunday Good
PM2.5
Monday Good
PM2.5

Snow Depth

Station Depth Elevation
No new snow has been reported.

Earthquake Activity

City Distance Mag. Time & Date
No recent earthquake activity has been reported nearby.
Minimum magnitude displayed is 2.5.

Coastal Water Temperatures

Place Temperature
Mackinaw City, MI 53.1 °F
Port Inland, MI 51.1 °F

Nearby Weather Stations